Time;durP1;ratioP1;P1;durP2;ratioP2;P2;SDS_P1;SDS_P2;PMS_P1;PMS_P2;Temp;Humidity;BMP_temperature;BMP_pressure;BME280_temperature;BME280_humidity;BME280_pressure;Samples;Min_cycle;Max_cycle;Signal;HPM_P1;HPM_P2
2023/02/20 00:00:31;;;;;;;5.60;3.30;;;7.60;99.90;;;;;;5029397;28;20218;-79
2023/02/20 00:02:56;;;;;;;4.17;3.40;;;7.50;99.90;;;;;;5025506;28;20202;-79
2023/02/20 00:05:22;;;;;;;5.30;4.03;;;7.50;99.90;;;;;;5030287;28;20420;-78
2023/02/20 00:07:48;;;;;;;4.90;4.10;;;7.50;99.90;;;;;;5030342;28;20427;-79
2023/02/20 00:10:15;;;;;;;10.27;5.30;;;7.50;99.90;;;;;;5030600;28;20305;-78
2023/02/20 00:12:41;;;;;;;7.27;5.37;;;7.50;99.90;;;;;;5030496;28;20614;-78
2023/02/20 00:15:07;;;;;;;7.23;4.83;;;7.50;99.90;;;;;;5030236;28;20492;-78
2023/02/20 00:17:33;;;;;;;8.00;6.23;;;7.50;99.90;;;;;;5029007;28;20190;-78
2023/02/20 00:19:59;;;;;;;7.67;5.63;;;7.50;99.90;;;;;;5030348;28;20946;-78
2023/02/20 00:22:25;;;;;;;9.87;7.10;;;7.50;99.90;;;;;;5029080;28;20493;-78
2023/02/20 00:24:51;;;;;;;10.07;6.90;;;7.50;99.90;;;;;;5030080;28;20930;-79
2023/02/20 00:27:17;;;;;;;10.60;6.40;;;7.50;99.90;;;;;;5029992;28;20178;-79
2023/02/20 00:29:44;;;;;;;12.07;7.10;;;7.40;99.90;;;;;;5029898;28;20520;-78
2023/02/20 00:32:11;;;;;;;8.93;6.60;;;7.70;99.90;;;;;;5030174;28;20447;-78
2023/02/20 00:34:37;;;;;;;10.70;7.20;;;7.40;99.90;;;;;;5028369;28;20818;-79
2023/02/20 00:37:03;;;;;;;9.10;6.90;;;7.40;99.90;;;;;;5030068;28;20417;-79
2023/02/20 00:39:30;;;;;;;13.03;7.70;;;7.60;99.90;;;;;;5011938;28;21146;-78
2023/02/20 00:41:56;;;;;;;11.50;6.90;;;7.50;99.90;;;;;;5030161;28;20524;-78
2023/02/20 00:44:22;;;;;;;11.83;7.13;;;7.40;99.90;;;;;;5029761;28;20413;-79
2023/02/20 00:46:48;;;;;;;11.20;7.13;;;7.40;99.90;;;;;;5029610;28;20421;-79
2023/02/20 00:49:13;;;;;;;12.90;7.20;;;7.60;99.90;;;;;;5029033;28;20578;-78
2023/02/20 00:51:39;;;;;;;11.77;7.73;;;7.40;99.90;;;;;;5030078;28;20298;-77
2023/02/20 00:54:05;;;;;;;9.83;7.40;;;7.50;99.90;;;;;;5029740;28;20202;-78
2023/02/20 00:56:31;;;;;;;10.03;7.07;;;7.50;99.90;;;;;;5028494;28;20182;-77
2023/02/20 00:58:56;;;;;;;9.60;6.20;;;7.80;99.90;;;;;;5029488;28;20417;-78
2023/02/20 01:01:23;;;;;;;8.70;6.43;;;7.50;99.90;;;;;;5029199;28;20293;-78
2023/02/20 01:03:49;;;;;;;11.07;7.50;;;7.60;99.90;;;;;;5011424;28;20422;-78
2023/02/20 01:06:15;;;;;;;12.03;8.37;;;7.50;99.90;;;;;;5028400;28;20421;-77
2023/02/20 01:08:41;;;;;;;10.00;7.40;;;7.50;99.90;;;;;;5029163;28;20425;-79
2023/02/20 01:11:06;;;;;;;11.50;8.40;;;7.50;99.90;;;;;;5028081;28;20506;-79
2023/02/20 01:13:32;;;;;;;11.10;8.10;;;7.50;99.90;;;;;;5027881;28;20238;-78
2023/02/20 01:15:58;;;;;;;12.93;8.17;;;7.50;99.90;;;;;;5029804;28;20194;-78
2023/02/20 01:18:24;;;;;;;11.80;8.10;;;7.50;99.90;;;;;;5011473;28;20187;-78
2023/02/20 01:20:49;;;;;;;14.77;8.57;;;7.40;99.90;;;;;;5027634;28;20210;-79
2023/02/20 01:23:15;;;;;;;16.00;10.27;;;7.50;99.90;;;;;;5036107;28;20444;-78
2023/02/20 01:25:41;;;;;;;14.73;9.50;;;7.40;99.90;;;;;;5027815;28;20174;-78
2023/02/20 01:28:06;;;;;;;12.30;8.20;;;7.50;99.90;;;;;;5028960;28;20640;-78
2023/02/20 01:30:32;;;;;;;13.47;8.80;;;7.40;99.90;;;;;;5029361;28;20205;-78
2023/02/20 01:32:58;;;;;;;13.30;8.17;;;7.40;99.90;;;;;;5028124;28;20263;-78
2023/02/20 01:35:23;;;;;;;13.20;9.00;;;7.50;99.90;;;;;;5028260;28;20328;-78
2023/02/20 01:37:49;;;;;;;13.10;8.07;;;7.50;99.90;;;;;;5029825;28;20210;-79
2023/02/20 01:40:17;;;;;;;13.70;8.20;;;7.60;99.90;;;;;;5029327;28;20293;-78
2023/02/20 01:42:43;;;;;;;11.77;7.93;;;7.60;99.90;;;;;;5029115;28;20194;-78
2023/02/20 01:45:37;;;;;;;12.20;8.77;;;7.70;99.90;;;;;;5029012;28;20409;-78
2023/02/20 01:48:03;;;;;;;11.67;8.53;;;7.50;99.90;;;;;;5028912;28;20229;-78
2023/02/20 01:50:52;;;;;;;11.93;8.83;;;7.60;99.90;;;;;;5027152;28;20876;-78
2023/02/20 01:53:22;;;;;;;13.27;8.17;;;7.50;99.90;;;;;;5028681;28;20866;-78
2023/02/20 01:56:04;;;;;;;11.20;8.43;;;7.50;99.90;;;;;;5028761;28;20417;-78
2023/02/20 01:58:40;;;;;;;13.67;7.97;;;7.40;99.90;;;;;;5027392;28;20444;-79
2023/02/20 02:01:06;;;;;;;11.57;7.77;;;7.50;99.90;;;;;;5028633;28;20465;-78
2023/02/20 02:03:36;;;;;;;17.40;8.53;;;7.70;99.90;;;;;;5028588;28;20471;-78
2023/02/20 02:06:06;;;;;;;14.60;8.53;;;7.70;99.90;;;;;;5029226;28;20182;-78
2023/02/20 02:08:34;;;;;;;13.43;7.57;;;7.50;99.90;;;;;;5028846;28;20552;-77
2023/02/20 02:11:05;;;;;;;11.50;7.67;;;7.50;99.90;;;;;;5028490;28;20807;-78
2023/02/20 02:13:32;;;;;;;12.97;8.83;;;7.50;99.90;;;;;;5027008;28;20447;-78
2023/02/20 02:16:22;;;;;;;11.40;8.30;;;7.50;99.90;;;;;;5028693;28;20504;-79
2023/02/20 02:19:11;;;;;;;13.50;8.57;;;7.60;99.90;;;;;;5028618;28;20417;-78
2023/02/20 02:22:10;;;;;;;12.23;8.30;;;7.60;99.90;;;;;;5028298;28;20461;-79
2023/02/20 02:24:45;;;;;;;12.50;8.03;;;7.80;99.90;;;;;;5028294;28;20414;-77
2023/02/20 02:27:10;;;;;;;11.20;8.00;;;7.60;99.90;;;;;;5027201;28;20925;-79
2023/02/20 02:30:09;;;;;;;10.10;8.03;;;7.80;99.90;;;;;;5027019;28;20413;-78
2023/02/20 02:32:35;;;;;;;12.37;8.37;;;7.50;99.90;;;;;;5028642;28;20214;-78
2023/02/20 02:35:21;;;;;;;12.77;8.40;;;7.60;99.90;;;;;;5028520;28;20731;-78
2023/02/20 02:37:59;;;;;;;13.80;8.90;;;7.40;99.90;;;;;;5007340;28;20194;-79
2023/02/20 02:40:46;;;;;;;15.70;9.90;;;7.60;99.90;;;;;;5027016;28;20464;-78
2023/02/20 02:43:34;;;;;;;16.07;9.03;;;7.70;99.90;;;;;;5027136;28;20430;-77
2023/02/20 02:46:10;;;;;;;14.57;9.77;;;7.60;99.90;;;;;;5028755;28;20485;-78
2023/02/20 02:48:52;;;;;;;12.40;8.80;;;7.50;99.90;;;;;;5028746;28;20413;-78
2023/02/20 02:51:25;;;;;;;14.17;9.70;;;7.50;99.90;;;;;;5028408;28;20424;-78
2023/02/20 02:54:08;;;;;;;14.43;9.20;;;7.40;99.90;;;;;;5028797;28;20423;-78
2023/02/20 02:56:36;;;;;;;14.60;9.30;;;7.70;99.90;;;;;;5029014;28;20785;-78
2023/02/20 02:59:04;;;;;;;15.30;9.90;;;7.70;99.90;;;;;;5027388;28;20425;-78
2023/02/20 03:01:33;;;;;;;13.97;8.90;;;7.60;99.90;;;;;;5028896;28;20457;-79
2023/02/20 03:04:02;;;;;;;12.77;9.17;;;7.40;99.90;;;;;;5030902;28;20847;-79
2023/02/20 03:06:33;;;;;;;13.77;9.33;;;7.60;99.90;;;;;;5031983;28;21005;-78
2023/02/20 03:09:07;;;;;;;13.50;8.27;;;7.60;99.90;;;;;;5030528;28;20782;-79
2023/02/20 03:11:34;;;;;;;13.60;8.90;;;7.50;99.90;;;;;;5031444;28;20432;-79
2023/02/20 03:17:06;;;;;;;14.10;9.10;;;7.70;99.90;;;;;;5031641;28;20799;-78
2023/02/20 03:19:34;;;;;;;12.80;8.40;;;7.50;99.90;;;;;;5031692;28;20467;-78
2023/02/20 03:22:04;;;;;;;11.77;7.93;;;7.50;99.90;;;;;;5031921;28;20696;-78
2023/02/20 03:24:53;;;;;;;16.90;8.60;;;7.30;99.90;;;;;;5030288;28;20476;-78
2023/02/20 03:27:19;;;;;;;15.33;9.20;;;7.70;99.90;;;;;;5031343;28;20413;-78
2023/02/20 03:29:46;;;;;;;13.70;9.23;;;7.50;99.90;;;;;;5031468;28;20429;-78
2023/02/20 03:43:24;;;;;;;12.90;7.80;;;7.60;99.90;;;;;;5030895;28;20524;-79
2023/02/20 03:46:13;;;;;;;11.00;7.80;;;7.50;99.90;;;;;;5031329;28;20417;-78
2023/02/20 03:48:47;;;;;;;14.43;8.93;;;7.70;99.90;;;;;;5029826;28;20471;-79
2023/02/20 03:51:13;;;;;;;12.57;8.57;;;7.40;99.90;;;;;;5031029;28;20449;-78
2023/02/20 03:53:42;;;;;;;11.67;7.20;;;7.50;99.90;;;;;;5030608;28;20567;-78
2023/02/20 03:56:13;;;;;;;12.47;8.23;;;7.60;99.90;;;;;;5030980;28;20422;-78
2023/02/20 03:58:44;;;;;;;11.80;8.60;;;7.40;99.90;;;;;;5030749;28;20439;-78
2023/02/20 04:01:16;;;;;;;11.57;7.50;;;7.50;99.90;;;;;;5030822;28;20508;-80
2023/02/20 04:03:46;;;;;;;12.87;8.30;;;7.50;99.90;;;;;;5036715;28;20705;-79
2023/02/20 04:06:14;;;;;;;11.17;7.43;;;7.60;99.90;;;;;;5036789;28;20424;-78
2023/02/20 04:08:51;;;;;;;15.33;9.30;;;7.60;99.90;;;;;;5035290;28;20417;-79
2023/02/20 04:11:32;;;;;;;13.17;8.60;;;7.50;99.90;;;;;;5036846;28;20448;-78
2023/02/20 04:14:00;;;;;;;13.23;8.03;;;7.50;99.90;;;;;;5036217;28;20428;-79
2023/02/20 04:16:26;;;;;;;12.10;7.80;;;7.40;99.90;;;;;;5018527;28;20914;-79
2023/02/20 04:18:52;;;;;;;10.27;7.40;;;7.40;99.90;;;;;;5036533;28;20417;-77
2023/02/20 04:21:25;;;;;;;13.43;8.40;;;7.50;99.90;;;;;;5035175;28;20225;-79
2023/02/20 04:24:11;;;;;;;12.13;8.43;;;7.30;99.90;;;;;;5018717;28;20445;-79
2023/02/20 04:26:38;;;;;;;11.67;7.10;;;7.40;99.90;;;;;;5034970;28;21151;-78
2023/02/20 04:29:05;;;;;;;13.17;8.07;;;7.20;99.90;;;;;;5034869;28;20405;-77
2023/02/20 04:31:30;;;;;;;15.17;7.73;;;7.50;99.90;;;;;;5034688;28;20425;-78
2023/02/20 04:33:56;;;;;;;10.93;7.13;;;7.40;99.90;;;;;;5036349;28;20436;-80
2023/02/20 04:36:23;;;;;;;11.97;7.70;;;7.40;99.90;;;;;;5034686;28;20813;-78
2023/02/20 04:38:49;;;;;;;11.60;8.00;;;7.40;99.90;;;;;;5037657;28;20563;-79
2023/02/20 04:41:15;;;;;;;14.33;9.33;;;7.20;99.90;;;;;;5055517;28;20492;-79
2023/02/20 04:43:40;;;;;;;10.33;7.37;;;7.40;99.90;;;;;;5055054;28;20194;-79
2023/02/20 04:46:06;;;;;;;13.60;7.37;;;7.40;99.90;;;;;;5055368;28;20419;-77
2023/02/20 04:48:32;;;;;;;12.03;6.63;;;7.40;99.90;;;;;;5055368;28;20193;-79
2023/02/20 04:50:57;;;;;;;11.53;7.50;;;7.50;99.90;;;;;;5054375;28;20252;-79
2023/02/20 04:53:23;;;;;;;12.90;8.03;;;7.30;99.90;;;;;;5054423;28;20212;-77
2023/02/20 04:55:49;;;;;;;14.40;7.13;;;7.40;99.90;;;;;;5056741;28;20700;-79
2023/02/20 04:58:15;;;;;;;12.33;7.37;;;7.30;99.90;;;;;;5055080;28;20178;-78
2023/02/20 05:00:40;;;;;;;10.73;6.80;;;7.40;99.90;;;;;;5055701;28;20214;-78
2023/02/20 05:03:06;;;;;;;9.60;7.40;;;7.40;99.90;;;;;;5055688;28;20452;-77
2023/02/20 05:05:32;;;;;;;11.63;6.70;;;7.40;99.90;;;;;;5055177;28;20216;-79
2023/02/20 05:08:00;;;;;;;11.67;6.67;;;7.20;99.90;;;;;;5055740;28;20594;-79
2023/02/20 05:10:27;;;;;;;11.67;6.50;;;7.60;99.90;;;;;;5054521;28;20209;-79
2023/02/20 05:12:55;;;;;;;10.30;6.50;;;7.30;99.90;;;;;;5055860;28;20456;-78
2023/02/20 05:15:21;;;;;;;11.90;6.77;;;7.50;99.90;;;;;;5055484;28;20447;-79
2023/02/20 05:17:47;;;;;;;10.73;6.00;;;7.70;99.90;;;;;;5055727;28;20435;-80
2023/02/20 05:20:13;;;;;;;8.77;6.50;;;7.50;99.90;;;;;;5055833;28;20456;-79
2023/02/20 05:22:39;;;;;;;18.70;7.20;;;7.60;99.90;;;;;;5039740;28;20210;-78
2023/02/20 05:25:06;;;;;;;9.13;5.93;;;7.40;99.90;;;;;;5034819;28;20424;-79
2023/02/20 05:27:31;;;;;;;7.80;5.73;;;7.40;99.90;;;;;;5035687;28;20217;-80
2023/02/20 05:29:59;;;;;;;12.80;6.30;;;7.40;99.90;;;;;;5035521;28;20674;-80
2023/02/20 05:32:27;;;;;;;10.07;6.07;;;7.50;99.90;;;;;;5033445;28;20206;-78
2023/02/20 05:34:52;;;;;;;9.33;6.80;;;7.30;99.90;;;;;;5031210;28;20422;-77
2023/02/20 05:37:20;;;;;;;11.30;6.07;;;7.50;99.90;;;;;;5032344;28;20431;-78
2023/02/20 05:39:46;;;;;;;12.43;6.07;;;7.30;99.90;;;;;;5043293;28;20510;-80
2023/02/20 05:42:13;;;;;;;17.03;6.40;;;7.40;99.90;;;;;;5038166;28;20468;-79
2023/02/20 05:44:38;;;;;;;10.20;5.90;;;7.40;99.90;;;;;;5034013;28;20981;-79
2023/02/20 05:47:04;;;;;;;9.50;6.07;;;7.40;99.90;;;;;;5030721;28;20534;-79
2023/02/20 05:49:31;;;;;;;11.83;6.40;;;7.40;99.90;;;;;;5032702;28;20778;-78
2023/02/20 05:51:57;;;;;;;11.17;6.03;;;7.50;99.90;;;;;;5032705;28;20687;-78
2023/02/20 05:54:23;;;;;;;11.43;5.90;;;7.30;99.90;;;;;;5032709;28;20521;-76
2023/02/20 05:56:49;;;;;;;9.40;6.50;;;7.50;99.90;;;;;;5034044;28;21013;-77
2023/02/20 05:59:19;;;;;;;12.23;6.30;;;7.30;99.90;;;;;;5035026;28;20815;-75
2023/02/20 06:01:45;;;;;;;11.97;6.30;;;7.40;99.90;;;;;;5034489;28;20470;-79
2023/02/20 06:04:10;;;;;;;9.70;5.80;;;7.50;99.90;;;;;;5037565;28;20432;-78
2023/02/20 06:06:41;;;;;;;10.60;6.70;;;7.40;99.90;;;;;;5038907;28;20425;-77
2023/02/20 06:09:09;;;;;;;8.97;6.20;;;7.40;99.90;;;;;;5038093;28;20687;-79
2023/02/20 06:11:36;;;;;;;9.70;5.80;;;7.30;99.90;;;;;;5039422;28;20432;-79
2023/02/20 06:14:03;;;;;;;14.13;6.50;;;7.30;99.90;;;;;;5037812;28;20455;-79
2023/02/20 06:16:29;;;;;;;8.00;6.20;;;7.30;99.90;;;;;;5039149;28;20448;-78
2023/02/20 06:18:56;;;;;;;16.63;6.50;;;7.30;99.90;;;;;;5039689;28;20428;-78
2023/02/20 06:21:23;;;;;;;8.83;5.80;;;7.50;99.90;;;;;;5037466;28;20457;-77
2023/02/20 06:23:51;;;;;;;8.40;6.90;;;7.30;99.90;;;;;;5037822;28;20420;-78
2023/02/20 06:26:17;;;;;;;8.50;6.30;;;7.20;99.90;;;;;;5039377;28;20413;-77
2023/02/20 06:28:44;;;;;;;9.67;6.40;;;7.30;99.90;;;;;;5039368;28;20413;-79
2023/02/20 06:31:10;;;;;;;14.13;8.03;;;7.30;99.90;;;;;;5027656;28;21124;-74
2023/02/20 06:33:36;;;;;;;11.47;7.47;;;7.30;99.90;;;;;;5036382;28;20512;-78
2023/02/20 06:36:03;;;;;;;12.67;8.90;;;7.40;99.90;;;;;;5041722;28;20417;-76
2023/02/20 06:38:28;;;;;;;11.40;8.13;;;7.40;99.90;;;;;;5039731;28;20456;-77
2023/02/20 06:40:54;;;;;;;10.70;8.13;;;7.50;99.90;;;;;;5053033;28;20542;-76
2023/02/20 06:43:20;;;;;;;12.03;7.60;;;7.30;99.90;;;;;;5052002;28;20208;-77
2023/02/20 06:45:46;;;;;;;12.93;8.30;;;7.10;99.90;;;;;;5048269;28;20245;-76
2023/02/20 06:48:16;;;;;;;11.53;8.40;;;7.30;99.90;;;;;;5031418;28;20763;-77
2023/02/20 06:50:42;;;;;;;12.67;8.27;;;7.20;99.90;;;;;;5031992;28;20436;-77
2023/02/20 06:53:08;;;;;;;9.97;8.80;;;7.30;99.90;;;;;;5032731;28;20445;-77
2023/02/20 06:55:34;;;;;;;13.10;9.10;;;7.30;99.90;;;;;;5033200;28;20925;-77
2023/02/20 06:57:59;;;;;;;8.53;7.50;;;7.30;99.90;;;;;;5031957;28;20421;-77
2023/02/20 07:00:25;;;;;;;11.60;8.60;;;7.30;99.90;;;;;;5032404;28;20222;-77
2023/02/20 07:02:51;;;;;;;12.23;8.90;;;7.40;99.90;;;;;;5032944;28;20529;-77
2023/02/20 07:05:17;;;;;;;14.70;9.33;;;7.30;99.90;;;;;;5033051;28;20186;-77
2023/02/20 07:07:43;;;;;;;12.77;9.97;;;7.30;99.90;;;;;;5033682;28;20428;-76
2023/02/20 07:10:09;;;;;;;13.50;10.50;;;7.30;99.90;;;;;;5032154;28;20506;-77
2023/02/20 07:12:39;;;;;;;14.40;9.70;;;7.30;99.90;;;;;;5032379;28;20229;-76
2023/02/20 07:15:06;;;;;;;13.60;10.57;;;7.30;99.90;;;;;;5033752;28;20186;-77
2023/02/20 07:17:32;;;;;;;16.33;11.50;;;7.20;99.90;;;;;;5034473;28;20416;-78
2023/02/20 07:19:58;;;;;;;14.87;11.73;;;7.50;99.90;;;;;;5025493;28;20491;-78
2023/02/20 07:22:23;;;;;;;19.40;11.20;;;7.20;99.90;;;;;;5033229;28;20221;-77
2023/02/20 07:24:53;;;;;;;17.23;11.30;;;7.30;99.90;;;;;;5027013;28;20430;-78
2023/02/20 07:27:19;;;;;;;21.50;12.10;;;7.20;99.90;;;;;;5013598;28;20652;-78
2023/02/20 07:29:46;;;;;;;17.10;11.20;;;7.20;99.90;;;;;;5017369;28;20780;-78
2023/02/20 07:32:13;;;;;;;17.73;11.77;;;7.20;99.90;;;;;;5023173;28;20947;-77
2023/02/20 07:34:38;;;;;;;13.80;10.83;;;7.20;99.90;;;;;;5023286;28;20456;-77
2023/02/20 07:37:04;;;;;;;16.33;11.20;;;7.10;99.90;;;;;;5025261;28;20931;-77
2023/02/20 07:39:30;;;;;;;18.47;11.60;;;7.10;99.90;;;;;;5038151;28;20663;-78
2023/02/20 07:41:55;;;;;;;14.90;10.63;;;7.10;99.90;;;;;;5007327;28;20211;-78
2023/02/20 07:44:21;;;;;;;15.17;10.20;;;7.20;99.90;;;;;;5024587;28;20179;-77
2023/02/20 07:46:47;;;;;;;16.40;11.43;;;7.10;99.90;;;;;;5025086;28;20175;-77
2023/02/20 07:49:12;;;;;;;14.47;11.17;;;7.40;99.90;;;;;;5023309;28;20539;-78
2023/02/20 07:51:38;;;;;;;16.37;10.73;;;7.30;99.90;;;;;;5030362;28;20751;-78
2023/02/20 07:54:04;;;;;;;14.33;11.03;;;7.20;99.90;;;;;;5024331;28;20532;-78
2023/02/20 07:56:30;;;;;;;14.60;11.13;;;7.30;99.90;;;;;;5025137;28;20217;-77
2023/02/20 07:58:55;;;;;;;16.10;11.30;;;7.30;99.90;;;;;;5026522;28;20189;-77
2023/02/20 08:01:21;;;;;;;17.57;11.53;;;7.10;99.90;;;;;;5028214;28;20487;-78
2023/02/20 08:03:47;;;;;;;14.63;10.93;;;7.20;99.90;;;;;;5022557;28;20237;-78
2023/02/20 08:06:16;;;;;;;15.10;11.67;;;7.40;99.90;;;;;;5025949;28;20218;-76
2023/02/20 08:08:45;;;;;;;15.63;11.47;;;7.30;99.90;;;;;;5024763;28;20674;-78
2023/02/20 08:11:11;;;;;;;13.90;10.10;;;7.30;99.90;;;;;;5021735;28;20515;-77
2023/02/20 08:13:37;;;;;;;14.17;10.33;;;7.20;99.90;;;;;;5024967;28;20536;-77
2023/02/20 08:16:03;;;;;;;17.57;10.40;;;7.40;99.90;;;;;;5036951;28;20182;-77
2023/02/20 08:18:29;;;;;;;17.17;11.07;;;7.40;99.90;;;;;;5034717;28;20428;-77
2023/02/20 08:20:54;;;;;;;17.53;11.40;;;7.40;99.90;;;;;;5034624;28;20469;-77
2023/02/20 08:23:21;;;;;;;17.53;10.23;;;7.50;99.90;;;;;;5017299;28;20202;-77
2023/02/20 08:25:47;;;;;;;16.53;10.90;;;7.40;99.90;;;;;;5032531;28;20230;-77
2023/02/20 08:28:13;;;;;;;17.73;10.80;;;7.50;99.90;;;;;;5033660;28;20437;-78
2023/02/20 08:30:39;;;;;;;14.40;10.20;;;7.40;99.90;;;;;;5034635;28;20182;-78
2023/02/20 08:33:07;;;;;;;18.90;10.60;;;7.40;99.90;;;;;;5034398;28;20950;-77
2023/02/20 08:35:33;;;;;;;17.53;12.10;;;7.50;99.90;;;;;;5036427;28;20237;-77
2023/02/20 08:38:25;;;;;;;17.03;10.20;;;7.30;99.90;;;;;;5018787;28;20414;-76
2023/02/20 08:40:51;;;;;;;14.63;10.40;;;7.30;99.90;;;;;;5034473;28;20723;-78
2023/02/20 08:43:16;;;;;;;15.60;10.97;;;7.40;99.90;;;;;;5028980;28;20529;-77
2023/02/20 08:45:42;;;;;;;14.63;10.47;;;7.40;99.90;;;;;;5014617;28;20556;-78
2023/02/20 08:48:08;;;;;;;17.83;10.60;;;7.40;99.90;;;;;;5016324;28;20218;-78
2023/02/20 08:50:33;;;;;;;21.63;13.40;;;7.40;99.90;;;;;;5027810;28;20209;-77
2023/02/20 08:52:59;;;;;;;16.33;10.80;;;7.50;99.90;;;;;;5035372;28;20210;-76
2023/02/20 08:55:25;;;;;;;19.37;14.20;;;7.40;99.90;;;;;;5038537;28;20178;-77
2023/02/20 08:57:50;;;;;;;17.37;10.73;;;7.60;99.90;;;;;;5037959;28;20636;-78
2023/02/20 09:00:17;;;;;;;17.10;10.77;;;7.40;99.90;;;;;;5037733;28;20202;-77
2023/02/20 09:02:45;;;;;;;16.30;11.30;;;7.70;99.90;;;;;;5039071;28;20209;-78
2023/02/20 09:05:11;;;;;;;15.13;10.73;;;7.50;99.90;;;;;;5038081;28;20529;-76
2023/02/20 09:07:37;;;;;;;19.37;11.20;;;7.60;99.90;;;;;;5037338;28;20765;-78
2023/02/20 09:10:04;;;;;;;14.53;11.10;;;7.40;99.90;;;;;;5038906;28;20229;-78
2023/02/20 09:12:30;;;;;;;12.80;10.43;;;7.50;99.90;;;;;;5038905;28;20222;-78
2023/02/20 09:14:59;;;;;;;17.47;10.80;;;7.50;99.90;;;;;;5037896;28;20431;-77
2023/02/20 09:17:28;;;;;;;14.60;10.40;;;7.50;99.90;;;;;;5037768;28;20451;-78
2023/02/20 09:19:54;;;;;;;14.83;11.07;;;7.50;99.90;;;;;;5038781;28;20492;-78
2023/02/20 09:22:23;;;;;;;15.63;11.23;;;7.30;99.90;;;;;;5037266;28;20471;-78
2023/02/20 09:24:50;;;;;;;12.87;9.50;;;7.50;99.90;;;;;;5037827;28;20414;-78
2023/02/20 09:27:16;;;;;;;17.40;12.20;;;7.50;99.90;;;;;;5037134;28;20480;-77
2023/02/20 09:29:43;;;;;;;18.70;10.90;;;7.50;99.90;;;;;;5038501;28;20453;-78
2023/02/20 09:32:09;;;;;;;16.97;11.10;;;7.60;99.90;;;;;;5039043;28;20476;-75
2023/02/20 09:34:35;;;;;;;16.47;10.73;;;7.40;99.90;;;;;;5037222;28;20417;-76
2023/02/20 09:37:01;;;;;;;14.57;10.80;;;7.60;99.90;;;;;;5038013;28;20413;-78
2023/02/20 09:39:26;;;;;;;15.60;11.00;;;7.50;99.90;;;;;;5036713;28;20468;-77
2023/02/20 09:42:07;;;;;;;18.53;10.43;;;7.50;99.90;;;;;;5036708;28;20465;-78
2023/02/20 09:45:00;;;;;;;16.33;11.27;;;7.50;99.90;;;;;;5037904;28;20179;-77
2023/02/20 09:47:29;;;;;;;15.03;10.27;;;7.60;99.90;;;;;;5037967;28;20432;-78
2023/02/20 09:50:01;;;;;;;16.20;10.53;;;7.60;99.90;;;;;;5036656;28;20512;-78
2023/02/20 09:52:29;;;;;;;14.80;10.47;;;7.50;99.90;;;;;;5037634;28;20724;-78
2023/02/20 09:55:05;;;;;;;15.63;10.37;;;7.50;99.90;;;;;;5036997;28;20783;-78
2023/02/20 09:57:34;;;;;;;18.90;11.00;;;7.50;99.90;;;;;;5038152;28;20412;-78
2023/02/20 10:00:19;;;;;;;13.33;10.60;;;7.60;99.90;;;;;;5036215;28;20512;-78
2023/02/20 10:03:01;;;;;;;15.47;10.63;;;7.60;99.90;;;;;;5021481;28;20433;-78
2023/02/20 10:05:29;;;;;;;14.67;10.50;;;7.60;99.90;;;;;;5037941;28;20421;-76
2023/02/20 10:07:54;;;;;;;15.67;10.97;;;7.40;99.90;;;;;;5043868;28;20417;-77
2023/02/20 10:10:22;;;;;;;19.30;10.87;;;7.80;99.90;;;;;;5036092;28;20429;-77
2023/02/20 10:13:19;;;;;;;15.67;10.87;;;7.70;99.90;;;;;;5035793;28;20256;-76
2023/02/20 10:15:54;;;;;;;17.03;11.03;;;7.70;99.90;;;;;;5036556;28;20426;-78
2023/02/20 10:19:00;;;;;;;16.70;10.17;;;7.60;99.90;;;;;;5037945;28;20412;-78
2023/02/20 10:21:59;;;;;;;16.87;11.00;;;7.70;99.90;;;;;;5015656;28;20893;-77
2023/02/20 10:24:52;;;;;;;19.93;10.63;;;7.90;99.90;;;;;;5021051;28;20425;-77
2023/02/20 10:27:24;;;;;;;13.30;10.23;;;7.60;99.90;;;;;;5039162;28;20421;-77
2023/02/20 10:29:51;;;;;;;15.07;10.57;;;7.70;99.90;;;;;;5037792;28;20945;-77
2023/02/20 10:32:27;;;;;;;14.20;10.47;;;7.80;99.90;;;;;;5039408;28;20466;-76
2023/02/20 10:34:58;;;;;;;15.60;9.53;;;7.60;99.90;;;;;;5037733;28;20424;-78
2023/02/20 10:37:28;;;;;;;15.97;10.27;;;7.80;99.90;;;;;;5038437;28;20432;-78
2023/02/20 10:40:11;;;;;;;17.07;11.30;;;7.80;99.90;;;;;;5037248;28;20425;-78
2023/02/20 10:42:46;;;;;;;13.50;9.90;;;8.10;99.90;;;;;;5037434;28;20983;-78
2023/02/20 10:45:20;;;;;;;14.70;9.87;;;7.90;99.90;;;;;;5038620;28;20428;-78
2023/02/20 10:48:00;;;;;;;14.40;9.90;;;7.80;99.90;;;;;;5038218;28;20397;-78
2023/02/20 10:50:54;;;;;;;15.17;10.73;;;7.80;99.90;;;;;;5038275;28;20413;-78
2023/02/20 10:53:27;;;;;;;13.73;9.70;;;7.80;99.90;;;;;;5037260;28;20883;-78
2023/02/20 10:56:19;;;;;;;12.97;9.80;;;7.90;99.90;;;;;;5036669;28;20409;-78
2023/02/20 10:58:55;;;;;;;17.80;9.70;;;8.00;99.90;;;;;;5038453;28;20531;-78
2023/02/20 11:01:23;;;;;;;15.67;10.50;;;8.00;99.90;;;;;;5036562;28;20452;-78
2023/02/20 11:04:14;;;;;;;20.77;10.83;;;8.00;99.90;;;;;;5037651;28;20420;-78
2023/02/20 11:06:49;;;;;;;14.43;10.47;;;8.20;99.90;;;;;;5037780;28;20417;-77
2023/02/20 11:09:15;;;;;;;15.23;11.53;;;8.20;99.90;;;;;;5020401;28;20413;-77
2023/02/20 11:11:44;;;;;;;13.60;9.47;;;8.30;99.90;;;;;;5020105;28;20436;-78
2023/02/20 11:14:29;;;;;;;13.97;10.50;;;8.10;99.90;;;;;;5037788;28;20413;-77
2023/02/20 11:16:58;;;;;;;13.67;10.50;;;8.20;99.90;;;;;;5015562;28;20420;-77
2023/02/20 11:19:39;;;;;;;16.20;10.77;;;8.20;99.90;;;;;;5029694;28;20421;-78
2023/02/20 11:22:05;;;;;;;12.80;9.83;;;8.30;99.90;;;;;;5027934;28;20453;-77
2023/02/20 11:24:38;;;;;;;12.67;9.50;;;8.40;99.90;;;;;;5031447;28;20432;-77
2023/02/20 11:27:13;;;;;;;14.27;9.70;;;8.60;99.90;;;;;;5030818;28;20654;-77
2023/02/20 11:30:03;;;;;;;17.37;11.20;;;8.60;99.90;;;;;;5032062;28;20412;-77
2023/02/20 11:32:39;;;;;;;13.67;9.87;;;8.40;99.90;;;;;;5032561;28;20429;-76
2023/02/20 11:35:23;;;;;;;19.03;11.17;;;8.40;99.90;;;;;;5032703;28;20413;-76
2023/02/20 11:38:10;;;;;;;16.93;11.10;;;8.30;99.90;;;;;;5031620;28;20922;-77
2023/02/20 11:40:36;;;;;;;13.03;8.63;;;8.40;99.90;;;;;;5032909;28;20813;-77
2023/02/20 11:43:32;;;;;;;14.87;10.57;;;8.40;99.90;;;;;;5031748;28;20520;-78
2023/02/20 11:46:17;;;;;;;15.83;10.50;;;8.40;99.90;;;;;;5032639;28;20421;-77
2023/02/20 11:49:04;;;;;;;11.73;8.77;;;8.30;99.90;;;;;;5033173;28;20467;-76
2023/02/20 11:51:33;;;;;;;13.20;9.87;;;8.30;99.90;;;;;;5033318;28;20738;-77
2023/02/20 11:54:16;;;;;;;14.27;9.57;;;8.30;99.90;;;;;;5033566;28;20427;-78
2023/02/20 11:57:00;;;;;;;13.10;9.70;;;8.50;99.90;;;;;;5034172;28;20413;-77
2023/02/20 11:59:26;;;;;;;12.23;7.97;;;8.30;99.90;;;;;;5033233;28;20417;-77
2023/02/20 12:01:52;;;;;;;13.60;9.70;;;8.50;99.90;;;;;;5034134;28;20474;-78
2023/02/20 12:04:21;;;;;;;12.93;9.17;;;8.50;99.90;;;;;;5033289;28;20189;-77
2023/02/20 12:06:47;;;;;;;13.17;9.40;;;8.50;99.90;;;;;;5033665;28;20856;-78
2023/02/20 12:09:27;;;;;;;17.40;10.33;;;8.50;99.90;;;;;;5034181;28;20441;-77
2023/02/20 12:11:56;;;;;;;15.17;10.13;;;8.40;99.90;;;;;;5034806;28;20683;-77
2023/02/20 12:14:21;;;;;;;16.33;9.27;;;8.70;99.90;;;;;;5034739;28;20405;-77
2023/02/20 12:16:53;;;;;;;17.20;10.00;;;8.50;99.90;;;;;;5033608;28;20478;-78
2023/02/20 12:19:34;;;;;;;13.47;9.83;;;8.40;99.90;;;;;;5034106;28;20185;-78
2023/02/20 12:22:05;;;;;;;14.87;9.63;;;8.60;99.90;;;;;;5034809;28;20461;-77
2023/02/20 12:24:46;;;;;;;16.23;9.90;;;8.50;99.90;;;;;;5034798;28;20458;-78
2023/02/20 12:27:42;;;;;;;14.40;9.90;;;8.40;99.90;;;;;;5035140;28;20408;-77
2023/02/20 12:30:48;;;;;;;13.53;9.90;;;8.50;99.90;;;;;;5030965;28;20413;-77
2023/02/20 12:33:26;;;;;;;16.70;10.33;;;8.40;99.90;;;;;;5035071;28;20429;-78
2023/02/20 12:36:19;;;;;;;15.10;10.07;;;8.60;99.90;;;;;;5018597;28;20453;-76
2023/02/20 12:38:56;;;;;;;14.90;10.30;;;8.50;99.90;;;;;;5034352;28;20910;-76
2023/02/20 12:41:24;;;;;;;18.10;11.93;;;8.40;99.90;;;;;;5034345;28;20459;-77
2023/02/20 12:44:13;;;;;;;16.63;11.70;;;8.40;99.90;;;;;;5028891;28;20455;-77
2023/02/20 12:47:18;;;;;;;15.97;11.50;;;8.60;99.90;;;;;;5014991;28;20937;-78
2023/02/20 12:50:09;;;;;;;13.10;9.90;;;8.50;99.90;;;;;;5001814;28;20421;-77
2023/02/20 12:52:46;;;;;;;16.50;10.10;;;8.40;99.90;;;;;;5036656;28;20425;-77
2023/02/20 12:56:03;;;;;;;16.37;11.27;;;8.40;99.90;;;;;;5035161;28;20421;-78
2023/02/20 12:58:58;;;;;;;14.83;11.00;;;8.50;99.90;;;;;;5013130;28;20417;-78
2023/02/20 13:01:23;;;;;;;21.43;13.17;;;8.50;99.90;;;;;;5034992;28;20465;-78
2023/02/20 13:03:56;;;;;;;15.03;10.03;;;8.50;99.90;;;;;;5035338;28;20421;-77
2023/02/20 13:06:53;;;;;;;17.50;11.57;;;8.40;99.90;;;;;;5035297;28;20186;-79
2023/02/20 13:09:23;;;;;;;18.77;11.80;;;8.40;99.90;;;;;;5035065;28;20484;-77
2023/02/20 13:11:57;;;;;;;15.17;11.20;;;8.40;99.90;;;;;;5035484;28;20496;-77
2023/02/20 13:14:32;;;;;;;15.47;9.90;;;8.60;99.90;;;;;;5036164;28;20467;-77
2023/02/20 13:17:00;;;;;;;14.80;11.00;;;8.40;99.90;;;;;;5036453;28;20676;-78